createdAt,value
2019-01-31T00:00:30.651Z,14.68
2019-01-31T00:04:05.874Z,17.27
2019-01-31T00:06:46.005Z,12.68
2019-01-31T00:09:36.363Z,14.90
2019-01-31T00:12:53.670Z,13.75
2019-01-31T00:15:28.704Z,13.70
2019-01-31T00:18:47.823Z,14.58
2019-01-31T00:21:33.098Z,13.93
2019-01-31T00:24:31.021Z,15.13
2019-01-31T00:27:44.276Z,16.02
2019-01-31T00:30:25.072Z,15.23
2019-01-31T00:33:36.844Z,15.13
2019-01-31T00:36:48.224Z,16.48
2019-01-31T00:40:05.276Z,14.47
2019-01-31T00:43:01.554Z,15.68
2019-01-31T00:45:57.458Z,18.00
2019-01-31T00:49:04.609Z,14.87
2019-01-31T00:52:15.486Z,16.93
2019-01-31T00:55:13.882Z,17.65
2019-01-31T00:58:48.967Z,17.12
2019-01-31T01:01:50.863Z,18.10
2019-01-31T01:05:12.658Z,23.22
2019-01-31T01:08:20.201Z,20.85
2019-01-31T01:11:20.233Z,21.73
2019-01-31T01:14:49.414Z,25.15
2019-01-31T01:17:25.849Z,20.88
2019-01-31T01:20:17.350Z,20.27
2019-01-31T01:23:25.718Z,21.17
2019-01-31T01:26:22.820Z,21.35
2019-01-31T01:29:42.042Z,19.90
2019-01-31T01:32:54.569Z,21.48
2019-01-31T01:36:11.643Z,23.60
2019-01-31T01:39:19.607Z,24.15
2019-01-31T01:42:26.628Z,23.98
2019-01-31T01:45:39.518Z,24.67
2019-01-31T01:48:53.676Z,28.50
2019-01-31T01:51:35.830Z,28.30
2019-01-31T01:54:47.770Z,26.20
2019-01-31T01:58:06.618Z,31.07
2019-01-31T02:01:22.022Z,28.50
2019-01-31T02:04:11.885Z,28.00
2019-01-31T02:07:09.985Z,29.55
2019-01-31T02:10:05.548Z,29.75
2019-01-31T02:13:14.947Z,28.83
2019-01-31T02:16:51.527Z,26.25
2019-01-31T02:19:53.903Z,30.10
2019-01-31T02:22:55.868Z,28.62
2019-01-31T02:25:31.404Z,29.00
2019-01-31T02:28:37.051Z,29.20
2019-01-31T02:31:38.744Z,31.52
2019-01-31T02:34:49.770Z,32.50
2019-01-31T02:37:56.077Z,31.25
2019-01-31T02:40:55.722Z,30.40
2019-01-31T02:43:53.706Z,32.50
2019-01-31T02:46:56.245Z,32.63
2019-01-31T02:50:15.279Z,30.97
2019-01-31T02:53:03.140Z,30.05
2019-01-31T02:56:11.081Z,29.85
2019-01-31T02:59:06.985Z,27.27
2019-01-31T03:01:52.067Z,29.48
2019-01-31T03:04:52.803Z,26.37
2019-01-31T03:08:01.093Z,29.12
2019-01-31T03:10:41.149Z,28.17
2019-01-31T03:13:44.425Z,25.43
2019-01-31T03:17:10.334Z,27.73
2019-01-31T03:20:23.315Z,26.97
2019-01-31T03:23:06.018Z,30.75
2019-01-31T03:26:03.901Z,27.30
2019-01-31T03:29:27.202Z,25.90
2019-01-31T03:32:36.237Z,28.70
2019-01-31T03:35:50.035Z,26.33
2019-01-31T03:39:05.058Z,25.72
2019-01-31T03:42:07.863Z,25.37
2019-01-31T03:45:22.167Z,26.20
2019-01-31T03:48:48.426Z,27.93
2019-01-31T03:51:55.595Z,24.82
2019-01-31T03:54:51.517Z,26.95
2019-01-31T03:57:37.985Z,25.37
2019-01-31T04:00:24.301Z,23.67
2019-01-31T04:03:16.117Z,24.30
2019-01-31T04:05:57.787Z,25.00
2019-01-31T04:08:27.693Z,23.50
2019-01-31T04:10:57.711Z,23.47
2019-01-31T04:13:27.744Z,21.90
2019-01-31T04:16:03.711Z,23.18
2019-01-31T04:18:35.255Z,23.38
2019-01-31T04:21:05.254Z,22.13
2019-01-31T04:23:35.181Z,21.00
2019-01-31T04:26:08.975Z,19.30
2019-01-31T04:28:40.695Z,20.65
2019-01-31T04:31:12.364Z,22.32
2019-01-31T04:33:42.382Z,20.43
2019-01-31T04:36:12.286Z,22.07
2019-01-31T04:38:42.222Z,20.55
2019-01-31T04:41:12.175Z,23.12
2019-01-31T04:43:44.918Z,24.55
2019-01-31T04:46:14.832Z,20.37
2019-01-31T04:48:44.799Z,22.20
2019-01-31T04:51:15.790Z,23.10
2019-01-31T04:53:46.847Z,19.92
2019-01-31T04:56:16.786Z,20.80
2019-01-31T04:58:50.397Z,21.62
2019-01-31T05:01:26.549Z,18.90
2019-01-31T05:03:56.065Z,18.37
2019-01-31T05:06:25.935Z,21.97
2019-01-31T05:08:55.746Z,17.87
2019-01-31T05:11:25.641Z,16.30
2019-01-31T05:14:00.985Z,17.95
2019-01-31T05:16:31.984Z,18.15
2019-01-31T05:19:01.982Z,17.65
2019-01-31T05:21:31.858Z,19.00
2019-01-31T05:24:01.792Z,20.02
2019-01-31T05:26:31.770Z,19.57
2019-01-31T05:29:01.693Z,17.17
2019-01-31T05:31:32.038Z,19.67
2019-01-31T05:34:02.436Z,15.83
2019-01-31T05:36:32.425Z,18.05
2019-01-31T05:39:02.320Z,22.25
2019-01-31T05:41:33.328Z,19.90
2019-01-31T05:44:05.782Z,20.20
2019-01-31T05:46:35.694Z,18.52
2019-01-31T05:49:05.895Z,20.37
2019-01-31T05:51:39.225Z,20.95
2019-01-31T05:54:10.127Z,18.85
2019-01-31T05:56:39.962Z,18.98
2019-01-31T05:59:09.792Z,21.17
2019-01-31T06:01:39.669Z,20.08
2019-01-31T06:04:09.430Z,20.60
2019-01-31T06:06:39.411Z,24.40
2019-01-31T06:09:10.503Z,20.45
2019-01-31T06:11:40.376Z,20.77
2019-01-31T06:14:10.241Z,19.37
2019-01-31T06:16:40.251Z,21.48
2019-01-31T06:19:10.170Z,18.23
2019-01-31T06:21:41.223Z,23.98
2019-01-31T06:24:11.167Z,22.22
2019-01-31T06:26:41.114Z,20.12
2019-01-31T06:29:11.057Z,21.95
2019-01-31T06:31:40.977Z,19.73
2019-01-31T06:34:11.168Z,19.40
2019-01-31T06:36:42.033Z,22.73
2019-01-31T06:39:14.501Z,21.75
2019-01-31T06:41:44.463Z,20.37
2019-01-31T06:44:14.793Z,18.25
2019-01-31T06:46:44.663Z,17.92
2019-01-31T06:49:14.657Z,20.20
2019-01-31T06:51:44.558Z,21.50
2019-01-31T06:54:14.477Z,20.55
2019-01-31T06:56:44.450Z,20.00
2019-01-31T06:59:14.613Z,20.88
2019-01-31T07:01:44.530Z,21.25
2019-01-31T07:04:14.607Z,20.30
2019-01-31T07:06:44.424Z,23.25
2019-01-31T07:09:14.333Z,21.12
2019-01-31T07:11:44.099Z,21.55
2019-01-31T07:14:14.047Z,23.22
2019-01-31T07:16:46.330Z,18.95
2019-01-31T07:19:16.163Z,23.05
2019-01-31T07:21:46.833Z,20.57
2019-01-31T07:24:16.783Z,19.10
2019-01-31T07:26:46.736Z,19.55
2019-01-31T07:29:16.597Z,20.70
2019-01-31T07:31:46.543Z,20.00
2019-01-31T07:34:16.403Z,23.95
2019-01-31T07:36:46.329Z,18.57
2019-01-31T07:39:16.243Z,19.87
2019-01-31T07:41:46.389Z,19.05
2019-01-31T07:44:16.225Z,18.17
2019-01-31T07:46:46.043Z,18.35
2019-01-31T07:49:15.876Z,21.10
2019-01-31T07:51:45.792Z,18.57
2019-01-31T07:54:15.543Z,24.32
2019-01-31T07:56:45.525Z,20.08
2019-01-31T07:59:15.338Z,16.02
2019-01-31T08:01:45.270Z,17.82
2019-01-31T08:04:15.184Z,17.60
2019-01-31T08:06:45.267Z,16.17
2019-01-31T08:09:15.103Z,18.98
2019-01-31T08:11:52.422Z,17.67
2019-01-31T08:14:16.693Z,18.70
2019-01-31T08:16:46.633Z,16.77
2019-01-31T08:19:17.503Z,15.85
2019-01-31T08:21:47.516Z,17.77
2019-01-31T08:24:17.319Z,19.05
2019-01-31T08:26:47.214Z,18.85
2019-01-31T08:29:17.146Z,18.25
2019-01-31T08:31:47.294Z,19.92
2019-01-31T08:34:19.234Z,16.95
2019-01-31T08:36:49.094Z,16.30
2019-01-31T08:39:19.032Z,19.30
2019-01-31T08:41:49.044Z,16.65
2019-01-31T08:44:19.120Z,17.30
2019-01-31T08:46:49.166Z,14.20
2019-01-31T08:49:18.990Z,15.48
2019-01-31T08:51:49.122Z,14.10
2019-01-31T08:54:20.400Z,12.82
2019-01-31T08:56:50.470Z,12.98
2019-01-31T08:59:20.262Z,12.93
2019-01-31T09:01:50.240Z,11.48
2019-01-31T09:04:20.212Z,11.68
2019-01-31T09:06:50.656Z,13.20
2019-01-31T09:09:21.295Z,12.03
2019-01-31T09:11:51.430Z,10.88
2019-01-31T09:14:21.286Z,12.88
2019-01-31T09:16:51.345Z,14.25
2019-01-31T09:19:21.504Z,11.25
2019-01-31T09:21:57.306Z,10.70
2019-01-31T09:24:54.661Z,10.88
2019-01-31T09:28:04.599Z,10.45
2019-01-31T09:31:10.419Z,13.15
2019-01-31T09:34:13.114Z,10.25
2019-01-31T09:37:06.703Z,13.00
2019-01-31T09:39:50.035Z,13.40
2019-01-31T09:42:28.673Z,11.50
2019-01-31T09:45:41.658Z,11.83
2019-01-31T09:48:20.391Z,9.05
2019-01-31T09:51:17.549Z,12.78
2019-01-31T09:54:18.394Z,11.43
2019-01-31T09:57:25.375Z,16.30
2019-01-31T10:00:37.883Z,10.05
2019-01-31T10:03:36.103Z,9.15
2019-01-31T10:06:41.617Z,12.80
2019-01-31T10:09:30.391Z,9.55
2019-01-31T10:12:56.430Z,12.10
2019-01-31T10:16:14.878Z,11.15
2019-01-31T10:19:23.287Z,16.15
2019-01-31T10:22:14.243Z,10.65
2019-01-31T10:25:13.279Z,11.93
2019-01-31T10:27:59.209Z,11.73
2019-01-31T10:30:59.291Z,10.38
2019-01-31T10:34:13.661Z,10.50
2019-01-31T10:37:01.495Z,11.78
2019-01-31T10:40:24.901Z,9.23
2019-01-31T10:43:23.549Z,9.00
2019-01-31T10:46:27.876Z,6.45
2019-01-31T10:49:45.809Z,9.85
2019-01-31T10:52:55.143Z,6.50
2019-01-31T10:56:14.023Z,7.75
2019-01-31T10:59:23.717Z,7.55
2019-01-31T11:02:38.261Z,10.05
2019-01-31T11:05:22.037Z,8.30
2019-01-31T11:08:16.327Z,6.17
2019-01-31T11:11:13.989Z,4.70
2019-01-31T11:14:43.027Z,10.23
2019-01-31T11:18:01.788Z,4.35
2019-01-31T11:20:51.737Z,6.25
2019-01-31T11:24:02.735Z,8.48
2019-01-31T11:27:09.581Z,9.58
2019-01-31T11:30:19.714Z,5.95
2019-01-31T11:33:27.994Z,4.42
2019-01-31T11:36:39.005Z,7.67
2019-01-31T11:39:34.930Z,7.35
2019-01-31T11:42:32.298Z,5.47
2019-01-31T11:45:53.954Z,9.08
2019-01-31T11:49:04.227Z,5.55
2019-01-31T11:52:18.728Z,5.45
2019-01-31T11:55:05.538Z,7.78
2019-01-31T11:58:23.132Z,5.92
2019-01-31T12:00:53.322Z,9.28
2019-01-31T12:03:23.875Z,7.15
2019-01-31T12:05:54.991Z,5.42
2019-01-31T12:08:25.452Z,7.42
2019-01-31T12:10:55.314Z,5.58
2019-01-31T12:13:25.456Z,5.25
2019-01-31T12:15:55.800Z,6.62
2019-01-31T12:18:25.881Z,7.15
2019-01-31T12:20:55.828Z,14.23
2019-01-31T12:23:25.786Z,4.47
2019-01-31T12:25:55.752Z,7.50
2019-01-31T12:28:25.696Z,5.62
2019-01-31T12:30:55.597Z,6.85
2019-01-31T12:33:25.742Z,4.95
2019-01-31T12:35:55.774Z,4.90
2019-01-31T12:38:36.454Z,7.67
2019-01-31T12:41:00.624Z,4.97
2019-01-31T12:43:35.236Z,5.20
2019-01-31T12:46:02.239Z,7.85
2019-01-31T12:48:32.214Z,6.90
2019-01-31T12:51:02.114Z,7.45
2019-01-31T12:53:32.093Z,7.20
2019-01-31T12:56:02.001Z,5.47
2019-01-31T12:58:34.063Z,5.85
2019-01-31T13:01:04.645Z,5.75
2019-01-31T13:03:34.521Z,8.48
2019-01-31T13:06:04.539Z,5.75
2019-01-31T13:08:34.504Z,8.68
2019-01-31T13:11:04.402Z,7.78
2019-01-31T13:13:45.160Z,4.30
2019-01-31T13:16:05.841Z,3.27
2019-01-31T13:18:36.880Z,6.30
2019-01-31T13:21:06.890Z,5.10
2019-01-31T13:23:36.760Z,5.03
2019-01-31T13:26:06.715Z,2.72
2019-01-31T13:28:36.674Z,3.87
2019-01-31T13:31:06.892Z,4.95
2019-01-31T13:33:36.746Z,4.50
2019-01-31T13:36:12.827Z,2.33
2019-01-31T13:38:42.947Z,7.00
2019-01-31T13:41:12.998Z,4.67
2019-01-31T13:43:42.847Z,3.55
2019-01-31T13:46:12.939Z,3.47
2019-01-31T13:48:42.984Z,3.02
2019-01-31T13:51:13.105Z,2.58
2019-01-31T13:53:43.191Z,6.42
2019-01-31T13:56:13.018Z,5.17
2019-01-31T13:58:42.964Z,5.20
2019-01-31T14:01:12.860Z,5.37
2019-01-31T14:03:43.762Z,1.67
2019-01-31T14:06:13.709Z,3.22
2019-01-31T14:08:43.652Z,1.95
2019-01-31T14:11:13.643Z,2.87
2019-01-31T14:13:43.614Z,4.10
2019-01-31T14:16:13.795Z,3.00
2019-01-31T14:18:43.835Z,0.55
2019-01-31T14:21:13.775Z,1.92
2019-01-31T14:23:43.887Z,2.72
2019-01-31T14:26:13.777Z,3.58
2019-01-31T14:28:43.777Z,3.15
2019-01-31T14:31:13.743Z,2.77
2019-01-31T14:33:43.726Z,4.42
2019-01-31T14:36:13.661Z,4.33
2019-01-31T14:38:43.595Z,2.65
2019-01-31T14:41:16.464Z,1.02
2019-01-31T14:43:46.104Z,4.55
2019-01-31T14:46:16.023Z,1.35
2019-01-31T14:48:45.950Z,2.25
2019-01-31T14:51:16.055Z,0.88
2019-01-31T14:53:48.771Z,2.05
2019-01-31T14:56:18.780Z,1.92
2019-01-31T14:58:48.762Z,3.98
2019-01-31T15:01:18.791Z,2.45
2019-01-31T15:03:51.509Z,2.85
2019-01-31T15:06:20.322Z,2.40
2019-01-31T15:08:50.197Z,2.72
2019-01-31T15:11:20.070Z,5.55
2019-01-31T15:13:50.258Z,4.97
2019-01-31T15:16:20.232Z,3.95
2019-01-31T15:18:50.132Z,2.00
2019-01-31T15:21:20.180Z,2.30
2019-01-31T15:23:50.145Z,1.52
2019-01-31T15:26:20.143Z,3.20
2019-01-31T15:28:50.151Z,3.72
2019-01-31T15:31:20.341Z,5.35
2019-01-31T15:33:50.440Z,4.28
2019-01-31T15:36:20.370Z,3.50
2019-01-31T15:38:50.346Z,3.37
2019-01-31T15:41:20.432Z,3.70
2019-01-31T15:43:50.466Z,5.53
2019-01-31T15:46:20.415Z,1.87
2019-01-31T15:48:51.618Z,3.22
2019-01-31T15:51:22.502Z,4.72
2019-01-31T15:53:52.521Z,3.00
2019-01-31T15:56:22.540Z,3.67
2019-01-31T15:58:52.698Z,8.50
2019-01-31T16:01:25.518Z,6.83
2019-01-31T16:04:05.410Z,4.85
2019-01-31T16:06:36.924Z,5.75
2019-01-31T16:09:08.331Z,5.03
2019-01-31T16:11:38.578Z,6.42
2019-01-31T16:14:08.719Z,5.35
2019-01-31T16:16:49.224Z,9.53
2019-01-31T16:19:19.084Z,7.12
2019-01-31T16:21:48.903Z,7.65
2019-01-31T16:24:18.840Z,8.73
2019-01-31T16:26:49.543Z,8.70
2019-01-31T16:29:19.457Z,5.05
2019-01-31T16:31:49.403Z,11.97
2019-01-31T16:34:22.459Z,8.05
2019-01-31T16:36:59.888Z,7.85
2019-01-31T16:39:30.057Z,8.18
2019-01-31T16:42:00.318Z,13.50
2019-01-31T16:44:30.545Z,5.70
2019-01-31T16:47:00.943Z,5.00
2019-01-31T16:49:32.804Z,3.17
2019-01-31T16:52:02.840Z,7.58
2019-01-31T16:54:32.831Z,8.50
2019-01-31T16:57:02.976Z,11.30
2019-01-31T16:59:39.597Z,7.62
2019-01-31T17:02:09.855Z,5.67
2019-01-31T17:04:39.907Z,5.87
2019-01-31T17:07:09.799Z,6.37
2019-01-31T17:09:40.815Z,9.03
2019-01-31T17:12:11.065Z,11.90
2019-01-31T17:14:41.015Z,8.73
2019-01-31T17:17:11.008Z,11.25
2019-01-31T17:19:44.325Z,9.13
2019-01-31T17:22:17.813Z,9.38
2019-01-31T17:24:47.774Z,12.18
2019-01-31T17:27:18.979Z,11.00
2019-01-31T17:29:53.312Z,10.35
2019-01-31T17:32:24.139Z,10.85
2019-01-31T17:34:54.033Z,12.07
2019-01-31T17:37:25.324Z,8.70
2019-01-31T17:39:55.484Z,8.55
2019-01-31T17:42:25.937Z,9.58
2019-01-31T17:44:55.806Z,8.65
2019-01-31T17:47:25.791Z,6.53
2019-01-31T17:49:55.700Z,7.62
2019-01-31T17:52:27.416Z,10.25
2019-01-31T17:54:57.230Z,8.35
2019-01-31T17:57:27.400Z,8.95
2019-01-31T17:59:57.433Z,7.83
2019-01-31T18:02:27.641Z,6.78
2019-01-31T18:04:57.602Z,8.98
2019-01-31T18:07:27.583Z,7.58
2019-01-31T18:09:57.495Z,7.87
2019-01-31T18:12:27.439Z,7.20
2019-01-31T18:14:59.884Z,6.85
2019-01-31T18:17:33.317Z,11.53
2019-01-31T18:20:06.642Z,9.28
2019-01-31T18:22:36.467Z,7.90
2019-01-31T18:25:08.585Z,8.33
2019-01-31T18:27:40.116Z,7.58
2019-01-31T18:30:21.942Z,6.08
2019-01-31T18:32:52.120Z,6.70
2019-01-31T18:35:22.054Z,7.17
2019-01-31T18:37:52.006Z,9.93
2019-01-31T18:40:31.654Z,8.60
2019-01-31T18:43:01.597Z,5.92
2019-01-31T18:45:32.211Z,8.63
2019-01-31T18:48:02.583Z,7.95
2019-01-31T18:50:34.339Z,8.25
2019-01-31T18:53:04.210Z,10.48
2019-01-31T18:55:34.121Z,10.30
2019-01-31T18:58:05.428Z,8.80
2019-01-31T19:00:37.522Z,10.70
2019-01-31T19:03:07.428Z,8.08
2019-01-31T19:05:37.723Z,9.40
2019-01-31T19:08:11.024Z,11.25
2019-01-31T19:10:43.876Z,12.53
2019-01-31T19:13:15.552Z,7.45
2019-01-31T19:15:46.496Z,7.40
2019-01-31T19:18:16.467Z,5.10
2019-01-31T19:20:56.845Z,7.50
2019-01-31T19:23:29.768Z,8.30
2019-01-31T19:25:59.751Z,5.30
2019-01-31T19:28:29.855Z,5.75
2019-01-31T19:30:59.800Z,10.13
2019-01-31T19:33:29.767Z,10.08
2019-01-31T19:36:01.803Z,7.03
2019-01-31T19:38:31.786Z,10.28
2019-01-31T19:41:01.759Z,6.03
2019-01-31T19:43:31.924Z,9.20
2019-01-31T19:46:01.993Z,7.58
2019-01-31T19:48:31.940Z,5.12
2019-01-31T19:51:06.221Z,7.25
2019-01-31T19:53:37.875Z,7.67
2019-01-31T19:56:08.836Z,9.58
2019-01-31T19:58:39.002Z,10.53
2019-01-31T20:01:08.861Z,11.85
2019-01-31T20:03:38.689Z,8.63
2019-01-31T20:06:08.647Z,11.22
2019-01-31T20:08:39.810Z,7.65
2019-01-31T20:11:12.715Z,11.90
2019-01-31T20:13:43.924Z,7.53
2019-01-31T20:16:17.918Z,10.50
2019-01-31T20:18:47.449Z,7.40
2019-01-31T20:21:17.396Z,8.18
2019-01-31T20:23:47.411Z,7.28
2019-01-31T20:26:17.357Z,8.10
2019-01-31T20:28:47.368Z,5.37
2019-01-31T20:31:19.009Z,8.38
2019-01-31T20:33:49.008Z,7.00
2019-01-31T20:36:19.020Z,6.70
2019-01-31T20:38:52.243Z,8.78
2019-01-31T20:41:23.257Z,4.92
2019-01-31T20:43:53.259Z,6.90
2019-01-31T20:46:23.354Z,6.35
2019-01-31T20:48:53.321Z,7.25
2019-01-31T20:51:23.315Z,10.82
2019-01-31T20:53:53.255Z,9.98
2019-01-31T20:56:23.223Z,8.73
2019-01-31T20:58:53.241Z,6.53
2019-01-31T21:01:23.201Z,6.08
2019-01-31T21:03:53.182Z,5.65
2019-01-31T21:06:23.305Z,15.05
2019-01-31T21:08:53.337Z,9.30
2019-01-31T21:11:23.258Z,6.92
2019-01-31T21:13:53.107Z,8.78
2019-01-31T21:16:22.987Z,6.80
2019-01-31T21:18:52.937Z,12.05
2019-01-31T21:21:22.824Z,7.42
2019-01-31T21:23:52.791Z,11.40
2019-01-31T21:26:24.706Z,4.83
2019-01-31T21:28:54.393Z,8.58
2019-01-31T21:31:24.359Z,6.08
2019-01-31T21:33:54.354Z,10.50
2019-01-31T21:36:24.289Z,10.95
2019-01-31T21:38:54.232Z,8.43
2019-01-31T21:41:24.162Z,9.18
2019-01-31T21:43:54.056Z,6.20
2019-01-31T21:46:23.871Z,6.42
2019-01-31T21:48:53.789Z,6.72
2019-01-31T21:51:23.683Z,7.20
2019-01-31T21:53:53.518Z,8.08
2019-01-31T21:56:23.468Z,4.87
2019-01-31T21:58:53.434Z,10.80
2019-01-31T22:01:23.351Z,8.95
2019-01-31T22:03:53.299Z,6.15
2019-01-31T22:06:23.241Z,7.55
2019-01-31T22:08:53.165Z,6.03
2019-01-31T22:11:23.049Z,11.00
2019-01-31T22:13:52.965Z,8.50
2019-01-31T22:16:22.946Z,8.80
2019-01-31T22:18:52.824Z,7.20
2019-01-31T22:21:22.781Z,11.63
2019-01-31T22:23:52.651Z,7.80
2019-01-31T22:26:22.645Z,5.75
2019-01-31T22:28:52.645Z,7.65
2019-01-31T22:31:22.694Z,5.30
2019-01-31T22:33:52.635Z,6.92
2019-01-31T22:36:23.732Z,6.30
2019-01-31T22:38:53.592Z,4.12
2019-01-31T22:41:23.696Z,5.67
2019-01-31T22:43:53.606Z,7.70
2019-01-31T22:46:23.577Z,8.40
2019-01-31T22:48:53.562Z,5.17
2019-01-31T22:51:23.533Z,7.10
2019-01-31T22:53:53.465Z,7.65
2019-01-31T22:56:23.417Z,7.00
2019-01-31T22:58:53.408Z,8.38
2019-01-31T23:01:42.051Z,6.53
2019-01-31T23:04:12.991Z,8.75
2019-01-31T23:06:42.753Z,5.42
2019-01-31T23:09:13.307Z,7.22
2019-01-31T23:11:43.414Z,8.03
2019-01-31T23:14:13.419Z,7.78
2019-01-31T23:16:43.319Z,7.58
2019-01-31T23:19:13.356Z,10.03
2019-01-31T23:21:43.263Z,4.92
2019-01-31T23:24:13.258Z,6.85
2019-01-31T23:26:43.086Z,7.35
2019-01-31T23:29:13.057Z,8.83
2019-01-31T23:31:42.984Z,11.57
2019-01-31T23:34:13.030Z,9.08
2019-01-31T23:36:43.088Z,12.05
2019-01-31T23:39:13.136Z,10.05
2019-01-31T23:41:42.983Z,8.15
2019-01-31T23:44:12.973Z,8.75
2019-01-31T23:46:42.850Z,8.40
2019-01-31T23:49:12.789Z,6.20
2019-01-31T23:51:42.774Z,6.47
2019-01-31T23:54:12.702Z,7.40
2019-01-31T23:56:42.610Z,5.55
2019-01-31T23:59:12.582Z,6.35
